Time;durP1;ratioP1;P1;durP2;ratioP2;P2;SDS_P1;SDS_P2;PMS_P1;PMS_P2;Temp;Humidity;BMP_temperature;BMP_pressure;BME280_temperature;BME280_humidity;BME280_pressure;Samples;Min_cycle;Max_cycle;Signal;HPM_P1;HPM_P2
2023/04/20 00:00:01;;;;;;;7.20;3.50;;;9.10;99.90;;;;;;6123253;23;20394;-82
2023/04/20 00:02:26;;;;;;;7.18;3.33;;;8.60;99.90;;;;;;6123316;23;20065;-83
2023/04/20 00:04:52;;;;;;;10.15;3.40;;;8.50;99.90;;;;;;6098938;23;20120;-83
2023/04/20 00:07:18;;;;;;;6.35;3.03;;;8.60;99.90;;;;;;6123114;23;20010;-82
2023/04/20 00:09:44;;;;;;;9.57;3.15;;;8.50;99.90;;;;;;6124338;23;20398;-83
2023/04/20 00:12:10;;;;;;;5.10;2.90;;;8.50;99.90;;;;;;6098944;23;20089;-83
2023/04/20 00:14:35;;;;;;;6.53;2.88;;;8.60;99.90;;;;;;6123731;23;20045;-82
2023/04/20 00:17:01;;;;;;;6.97;2.75;;;8.80;99.90;;;;;;6124915;23;20056;-83
2023/04/20 00:19:31;;;;;;;8.20;2.70;;;8.70;99.90;;;;;;6123349;23;20041;-82
2023/04/20 00:21:57;;;;;;;6.65;2.90;;;8.60;99.90;;;;;;6123439;23;20014;-82
2023/04/20 00:24:23;;;;;;;9.55;3.17;;;8.60;99.90;;;;;;6098189;23;20081;-83
2023/04/20 00:26:48;;;;;;;6.20;2.95;;;8.70;99.90;;;;;;6123749;23;20390;-83
2023/04/20 00:29:14;;;;;;;5.30;2.78;;;8.80;99.90;;;;;;6098870;23;20010;-82
2023/04/20 00:31:40;;;;;;;8.65;2.50;;;8.70;99.90;;;;;;6099048;23;20018;-82
2023/04/20 00:34:05;;;;;;;7.45;2.80;;;8.80;99.90;;;;;;6123542;23;20032;-82
2023/04/20 00:36:31;;;;;;;7.75;2.55;;;8.80;99.90;;;;;;6123653;23;20013;-83
2023/04/20 00:38:57;;;;;;;6.13;3.10;;;8.80;99.90;;;;;;6124300;23;20088;-83
2023/04/20 00:41:23;;;;;;;5.55;2.50;;;9.00;99.90;;;;;;6098729;23;20014;-82
2023/04/20 00:43:52;;;;;;;8.02;2.60;;;8.80;99.90;;;;;;6122935;23;20090;-83
2023/04/20 00:46:20;;;;;;;10.20;2.97;;;8.80;99.90;;;;;;6098651;23;20014;-82
2023/04/20 00:48:46;;;;;;;6.43;2.70;;;8.80;99.90;;;;;;6098745;23;20088;-82
2023/04/20 00:51:12;;;;;;;7.13;2.83;;;8.80;99.90;;;;;;6122542;23;20088;-82
2023/04/20 00:53:38;;;;;;;7.45;2.63;;;8.80;99.90;;;;;;6122782;23;20487;-82
2023/04/20 00:56:05;;;;;;;6.00;2.90;;;8.90;99.90;;;;;;6098305;23;20018;-82
2023/04/20 00:58:30;;;;;;;7.72;2.78;;;8.90;99.90;;;;;;6122752;23;20033;-83
2023/04/20 01:00:56;;;;;;;4.47;2.53;;;8.90;99.90;;;;;;6123371;23;20018;-83
2023/04/20 01:03:22;;;;;;;5.43;2.60;;;8.80;99.90;;;;;;6123517;23;20390;-83
2023/04/20 01:05:48;;;;;;;5.38;2.63;;;8.80;99.90;;;;;;6124737;23;20010;-82
2023/04/20 01:08:13;;;;;;;8.98;2.97;;;8.80;99.90;;;;;;6124845;23;20013;-83
2023/04/20 01:10:39;;;;;;;7.10;3.42;;;8.90;99.90;;;;;;6098410;23;20014;-82
2023/04/20 01:13:04;;;;;;;7.82;2.60;;;9.00;99.90;;;;;;6122909;23;20013;-82
2023/04/20 01:15:30;;;;;;;5.90;2.65;;;8.90;99.90;;;;;;6124759;23;20432;-82
2023/04/20 01:17:56;;;;;;;8.38;2.70;;;9.40;99.90;;;;;;6123004;23;20013;-82
2023/04/20 01:20:23;;;;;;;6.45;2.90;;;9.10;99.90;;;;;;6122128;23;20014;-82
2023/04/20 01:22:50;;;;;;;7.07;3.10;;;8.90;99.90;;;;;;6122547;23;20089;-82
2023/04/20 01:25:17;;;;;;;7.35;3.17;;;8.80;99.90;;;;;;6122962;23;20017;-82
2023/04/20 01:27:42;;;;;;;7.32;2.97;;;8.90;99.90;;;;;;6122623;23;20014;-83
2023/04/20 01:30:09;;;;;;;9.23;2.97;;;8.80;99.90;;;;;;6122543;23;20016;-82
2023/04/20 01:32:34;;;;;;;4.65;2.80;;;8.80;99.90;;;;;;6122737;23;20024;-80
2023/04/20 01:35:02;;;;;;;7.68;3.17;;;8.80;99.90;;;;;;6097639;23;20022;-80
2023/04/20 01:37:28;;;;;;;5.53;2.72;;;8.80;99.90;;;;;;6122614;23;20350;-80
2023/04/20 01:39:53;;;;;;;6.93;2.90;;;8.80;99.90;;;;;;6097956;23;20061;-80
2023/04/20 01:42:19;;;;;;;5.85;2.90;;;8.70;99.90;;;;;;6122709;23;20457;-80
2023/04/20 01:44:45;;;;;;;7.82;2.85;;;8.70;99.90;;;;;;6122414;23;20024;-80
2023/04/20 01:47:11;;;;;;;8.05;3.10;;;8.60;99.90;;;;;;6122858;23;20018;-80
2023/04/20 01:49:36;;;;;;;12.30;2.90;;;8.60;99.90;;;;;;6123875;23;20106;-80
2023/04/20 01:52:02;;;;;;;6.30;3.13;;;8.60;99.90;;;;;;6122174;23;20014;-80
2023/04/20 01:54:28;;;;;;;7.45;3.17;;;8.70;99.90;;;;;;6123811;23;20053;-80
2023/04/20 01:56:53;;;;;;;6.15;2.90;;;8.50;99.90;;;;;;6153841;23;20005;-81
2023/04/20 01:59:19;;;;;;;7.43;3.60;;;8.50;99.90;;;;;;6102892;23;20519;-80
2023/04/20 02:01:44;;;;;;;8.00;3.22;;;8.40;99.90;;;;;;6127107;23;20058;-80
2023/04/20 02:04:10;;;;;;;9.20;3.08;;;8.40;99.90;;;;;;6153311;23;20045;-83
2023/04/20 02:06:35;;;;;;;8.27;3.00;;;8.90;99.90;;;;;;6102762;23;20009;-83
2023/04/20 02:09:01;;;;;;;6.28;3.00;;;8.50;99.90;;;;;;6127506;23;20116;-83
2023/04/20 02:11:27;;;;;;;9.00;3.15;;;8.10;99.90;;;;;;6127222;23;20092;-83
2023/04/20 02:13:52;;;;;;;7.65;3.10;;;8.10;99.90;;;;;;6153602;23;20401;-83
2023/04/20 02:16:18;;;;;;;8.90;2.97;;;8.10;99.90;;;;;;6102378;23;20014;-83
2023/04/20 02:18:47;;;;;;;8.32;3.03;;;8.60;99.90;;;;;;6102113;23;20014;-83
2023/04/20 02:21:12;;;;;;;7.85;2.70;;;8.20;99.90;;;;;;6127033;23;20013;-83
2023/04/20 02:23:38;;;;;;;7.38;3.10;;;8.00;99.90;;;;;;6153465;23;20013;-84
2023/04/20 02:26:04;;;;;;;7.88;3.25;;;8.00;99.90;;;;;;6127357;23;20341;-83
2023/04/20 02:28:29;;;;;;;10.40;3.42;;;8.00;99.90;;;;;;6102567;23;20470;-82
2023/04/20 02:30:55;;;;;;;7.03;3.35;;;8.00;99.90;;;;;;6126954;23;20014;-83
2023/04/20 02:33:21;;;;;;;6.70;3.30;;;8.00;99.90;;;;;;6152996;23;20097;-83
2023/04/20 02:35:47;;;;;;;10.63;2.97;;;8.70;99.90;;;;;;6102432;23;20017;-82
2023/04/20 02:38:13;;;;;;;7.30;3.25;;;8.00;99.90;;;;;;6102440;23;20016;-82
2023/04/20 02:40:39;;;;;;;11.32;3.50;;;8.10;99.90;;;;;;6152798;23;20009;-82
2023/04/20 02:43:05;;;;;;;9.60;3.35;;;8.60;99.90;;;;;;6126876;23;20467;-83
2023/04/20 02:45:31;;;;;;;8.20;3.53;;;8.10;99.90;;;;;;6102424;23;20014;-82
2023/04/20 02:47:57;;;;;;;9.35;3.35;;;8.20;99.90;;;;;;6101782;23;20424;-83
2023/04/20 02:50:23;;;;;;;6.78;3.25;;;8.20;99.90;;;;;;6126614;23;20019;-83
2023/04/20 02:52:48;;;;;;;6.72;3.00;;;8.30;99.90;;;;;;6126925;23;20022;-82
2023/04/20 02:55:14;;;;;;;6.78;3.10;;;8.70;99.90;;;;;;6097146;23;20018;-83
2023/04/20 02:57:40;;;;;;;7.10;2.92;;;8.40;99.90;;;;;;6123768;23;20157;-83
2023/04/20 03:00:08;;;;;;;7.85;2.95;;;8.40;99.90;;;;;;6121740;23;20105;-84
2023/04/20 03:02:35;;;;;;;8.40;3.15;;;8.40;99.90;;;;;;6121070;23;20049;-83
2023/04/20 03:05:02;;;;;;;6.68;3.15;;;8.90;99.90;;;;;;6123784;23;20386;-83
2023/04/20 03:07:28;;;;;;;12.75;3.65;;;8.60;99.90;;;;;;6122026;23;20081;-83
2023/04/20 03:09:53;;;;;;;4.80;2.60;;;8.60;99.90;;;;;;6121772;23;20441;-82
2023/04/20 03:12:19;;;;;;;5.68;2.55;;;8.60;99.90;;;;;;6097446;23;20006;-83
2023/04/20 03:14:45;;;;;;;6.72;2.80;;;8.60;99.90;;;;;;6121749;23;20017;-84
2023/04/20 03:17:10;;;;;;;8.13;3.08;;;8.60;99.90;;;;;;6121465;23;20018;-83
2023/04/20 03:19:36;;;;;;;7.82;3.00;;;8.60;99.90;;;;;;6122088;23;20018;-83
2023/04/20 03:22:01;;;;;;;4.85;2.70;;;8.60;99.90;;;;;;6121687;23;20033;-83
2023/04/20 03:24:27;;;;;;;6.15;3.00;;;8.60;99.90;;;;;;6097268;23;20070;-82
2023/04/20 03:26:53;;;;;;;9.70;2.72;;;8.60;99.90;;;;;;6123111;23;20443;-83
2023/04/20 03:29:18;;;;;;;9.27;2.92;;;8.60;99.90;;;;;;6121491;23;20075;-84
2023/04/20 03:31:44;;;;;;;4.95;2.67;;;8.60;99.90;;;;;;6121228;23;20100;-83
2023/04/20 03:34:10;;;;;;;5.30;2.60;;;8.70;99.90;;;;;;6121631;23;20345;-83
2023/04/20 03:36:35;;;;;;;11.68;3.20;;;8.60;99.90;;;;;;6121619;23;20036;-84
2023/04/20 03:39:02;;;;;;;8.25;2.95;;;8.60;99.90;;;;;;6121693;23;20307;-83
2023/04/20 03:41:27;;;;;;;7.82;2.97;;;8.60;99.90;;;;;;6123391;23;20049;-83
2023/04/20 03:43:53;;;;;;;11.85;3.03;;;8.60;99.90;;;;;;6121557;23;20014;-83
2023/04/20 03:46:19;;;;;;;8.65;2.90;;;8.60;99.90;;;;;;6121231;23;20025;-83
2023/04/20 03:48:44;;;;;;;6.28;2.80;;;8.60;99.90;;;;;;6123806;23;20010;-83
2023/04/20 03:51:10;;;;;;;4.97;2.65;;;8.60;99.90;;;;;;6121570;23;20021;-83
2023/04/20 03:53:35;;;;;;;5.22;2.72;;;8.60;99.90;;;;;;6123190;23;20014;-83
2023/04/20 03:56:01;;;;;;;5.07;2.65;;;8.60;99.90;;;;;;6143438;23;20014;-84
2023/04/20 03:58:26;;;;;;;7.47;2.75;;;8.70;99.90;;;;;;6126405;23;20020;-84
2023/04/20 04:00:59;;;;;;;5.70;2.92;;;8.60;99.90;;;;;;6101281;23;20006;-83
2023/04/20 04:03:25;;;;;;;5.77;2.70;;;8.80;99.90;;;;;;6126195;23;20405;-83
2023/04/20 04:05:50;;;;;;;8.07;2.90;;;8.60;99.90;;;;;;6126834;23;20014;-83
2023/04/20 04:08:16;;;;;;;8.43;2.80;;;8.60;99.90;;;;;;6101815;23;20057;-83
2023/04/20 04:10:41;;;;;;;12.20;2.80;;;8.60;99.90;;;;;;6126458;23;20020;-84
2023/04/20 04:13:07;;;;;;;5.97;3.10;;;8.50;99.90;;;;;;6126332;23;20032;-84
2023/04/20 04:15:33;;;;;;;8.00;3.00;;;8.50;99.90;;;;;;6153287;23;20020;-83
2023/04/20 04:17:58;;;;;;;6.78;2.50;;;8.50;99.90;;;;;;6128070;23;20013;-83
2023/04/20 04:20:24;;;;;;;5.95;2.72;;;8.40;99.90;;;;;;6154052;23;20037;-84
2023/04/20 04:22:50;;;;;;;7.15;2.63;;;8.40;99.90;;;;;;6154314;23;20025;-84
2023/04/20 04:25:17;;;;;;;6.90;2.70;;;8.60;99.90;;;;;;6127955;23;20016;-83
2023/04/20 04:27:42;;;;;;;8.70;2.80;;;8.40;99.90;;;;;;6103831;23;20021;-83
2023/04/20 04:30:10;;;;;;;6.57;3.05;;;8.40;99.90;;;;;;6127315;23;20018;-83
2023/04/20 04:32:36;;;;;;;9.13;3.20;;;8.40;99.90;;;;;;6103667;23;20040;-83
2023/04/20 04:35:02;;;;;;;6.28;2.70;;;8.40;99.90;;;;;;6128772;23;20013;-83
2023/04/20 04:37:28;;;;;;;6.90;2.60;;;8.40;99.90;;;;;;6103694;23;20017;-83
2023/04/20 04:39:53;;;;;;;5.53;2.63;;;8.30;99.90;;;;;;6127841;23;20074;-84
2023/04/20 04:42:20;;;;;;;6.47;2.60;;;8.40;99.90;;;;;;6128454;23;20010;-83
2023/04/20 04:44:45;;;;;;;8.32;2.97;;;8.70;99.90;;;;;;6153822;23;20309;-83
2023/04/20 04:47:11;;;;;;;7.13;2.80;;;8.40;99.90;;;;;;6128332;23;20010;-85
2023/04/20 04:49:39;;;;;;;9.13;3.17;;;8.40;99.90;;;;;;6154339;23;20009;-84
2023/04/20 04:52:05;;;;;;;6.57;2.83;;;8.30;99.90;;;;;;6103464;23;20045;-83
2023/04/20 04:54:30;;;;;;;6.80;2.75;;;8.20;99.90;;;;;;6127910;23;20025;-83
2023/04/20 04:56:57;;;;;;;5.03;2.75;;;8.10;99.90;;;;;;6127657;23;20159;-83
2023/04/20 04:59:22;;;;;;;7.63;3.42;;;8.00;99.90;;;;;;6102762;23;20452;-83
2023/04/20 05:01:48;;;;;;;9.88;3.58;;;7.90;99.90;;;;;;6154203;23;20014;-82
2023/04/20 05:04:14;;;;;;;6.88;3.28;;;7.70;99.90;;;;;;6103407;23;20040;-84
2023/04/20 05:06:39;;;;;;;5.75;3.17;;;7.60;99.90;;;;;;6154063;23;20456;-83
2023/04/20 05:09:05;;;;;;;8.57;3.47;;;7.60;99.90;;;;;;6103140;23;20006;-83
2023/04/20 05:11:31;;;;;;;9.00;3.83;;;7.40;99.90;;;;;;6153587;23;20095;-84
2023/04/20 05:13:56;;;;;;;13.38;3.83;;;7.30;99.90;;;;;;6127190;23;20026;-83
2023/04/20 05:16:22;;;;;;;6.32;4.00;;;7.30;99.90;;;;;;6127725;23;20056;-83
2023/04/20 05:18:47;;;;;;;7.72;3.78;;;7.20;99.90;;;;;;6154057;23;20049;-84
2023/04/20 05:21:13;;;;;;;9.02;4.25;;;7.20;99.90;;;;;;6103200;23;20017;-84
2023/04/20 05:23:39;;;;;;;9.65;3.90;;;7.20;99.90;;;;;;6127923;23;20020;-83
2023/04/20 05:26:05;;;;;;;12.00;4.03;;;7.20;99.90;;;;;;6103577;23;20433;-83
2023/04/20 05:28:33;;;;;;;7.93;4.03;;;7.10;99.90;;;;;;6127247;23;20452;-83
2023/04/20 05:30:59;;;;;;;8.38;3.53;;;7.10;99.90;;;;;;6128273;23;20055;-83
2023/04/20 05:33:25;;;;;;;9.20;3.38;;;7.60;99.90;;;;;;6127740;23;20013;-84
2023/04/20 05:35:55;;;;;;;10.43;4.15;;;7.20;99.90;;;;;;6154135;23;20026;-83
2023/04/20 05:38:21;;;;;;;8.85;3.80;;;7.20;99.90;;;;;;6128504;23;20105;-83
2023/04/20 05:40:47;;;;;;;10.73;3.45;;;7.20;99.90;;;;;;6154048;23;20045;-83
2023/04/20 05:43:13;;;;;;;7.75;3.83;;;8.00;99.90;;;;;;6102699;23;20013;-83
2023/04/20 05:45:38;;;;;;;7.15;3.45;;;7.90;99.90;;;;;;6153705;23;20436;-82
2023/04/20 05:48:04;;;;;;;8.00;4.03;;;7.20;99.90;;;;;;6127704;23;20109;-83
2023/04/20 05:50:30;;;;;;;8.77;3.35;;;7.20;99.90;;;;;;6154375;23;20020;-83
2023/04/20 05:52:55;;;;;;;10.13;3.80;;;7.20;99.90;;;;;;6127715;23;20013;-83
2023/04/20 05:55:21;;;;;;;9.23;3.92;;;7.40;99.90;;;;;;6153925;23;20429;-83
2023/04/20 05:57:47;;;;;;;8.65;4.15;;;7.10;99.90;;;;;;6127078;23;20044;-83
2023/04/20 06:00:14;;;;;;;7.88;4.13;;;7.40;99.90;;;;;;6154096;23;20017;-82
2023/04/20 06:02:41;;;;;;;7.72;3.67;;;7.10;99.90;;;;;;6153992;23;20012;-83
2023/04/20 06:05:08;;;;;;;6.80;4.10;;;7.90;99.90;;;;;;6103054;23;20017;-84
2023/04/20 06:07:34;;;;;;;8.98;3.67;;;7.10;99.90;;;;;;6127694;23;20088;-83
2023/04/20 06:10:00;;;;;;;7.53;3.75;;;7.90;99.90;;;;;;6102976;23;20066;-83
2023/04/20 06:12:28;;;;;;;7.05;3.80;;;7.20;99.90;;;;;;6152327;23;20016;-84
2023/04/20 06:14:55;;;;;;;10.05;3.90;;;7.20;99.90;;;;;;6126766;23;20337;-83
2023/04/20 06:17:20;;;;;;;9.18;3.80;;;7.80;99.90;;;;;;6126867;23;20088;-83
2023/04/20 06:19:46;;;;;;;7.25;4.25;;;8.00;99.90;;;;;;6126969;23;20396;-83
2023/04/20 06:22:12;;;;;;;9.43;4.30;;;7.10;99.90;;;;;;6152793;23;20012;-84
2023/04/20 06:24:41;;;;;;;10.10;3.92;;;7.10;99.90;;;;;;6125840;23;20044;-84
2023/04/20 06:27:10;;;;;;;7.30;3.97;;;7.00;99.90;;;;;;6126579;23;20025;-83
2023/04/20 06:29:35;;;;;;;9.48;4.00;;;7.00;99.90;;;;;;6153128;23;20052;-83
2023/04/20 06:32:01;;;;;;;7.05;3.92;;;7.00;99.90;;;;;;6153101;23;20013;-84
2023/04/20 06:34:27;;;;;;;9.75;4.20;;;6.90;99.90;;;;;;6126695;23;20152;-84
2023/04/20 06:36:52;;;;;;;11.10;4.13;;;6.90;99.90;;;;;;6152723;23;20093;-84
2023/04/20 06:39:18;;;;;;;9.65;4.63;;;7.10;99.90;;;;;;6125894;23;20049;-84
2023/04/20 06:41:44;;;;;;;8.80;4.22;;;6.90;99.90;;;;;;6126036;23;20456;-84
2023/04/20 06:44:10;;;;;;;8.52;3.78;;;7.50;99.90;;;;;;6152618;23;20364;-84
2023/04/20 06:46:35;;;;;;;7.40;4.30;;;6.90;99.90;;;;;;6153065;23;20036;-83
2023/04/20 06:49:02;;;;;;;7.35;4.05;;;6.90;99.90;;;;;;6153021;23;20080;-84
2023/04/20 06:51:28;;;;;;;9.50;5.00;;;7.00;99.90;;;;;;6152925;23;20014;-84
2023/04/20 06:53:54;;;;;;;9.57;4.38;;;6.90;99.90;;;;;;6152304;23;20017;-84
2023/04/20 06:56:20;;;;;;;12.05;5.78;;;6.80;99.90;;;;;;6152241;23;20013;-84
2023/04/20 06:58:46;;;;;;;8.52;5.05;;;7.50;99.90;;;;;;6152716;23;20318;-84
2023/04/20 07:01:12;;;;;;;8.93;4.85;;;7.40;99.90;;;;;;6126288;23;20020;-84
2023/04/20 07:03:38;;;;;;;10.02;4.60;;;7.40;99.90;;;;;;6101893;23;20149;-84
2023/04/20 07:06:05;;;;;;;8.60;4.78;;;6.60;99.90;;;;;;6126366;23;20013;-83
2023/04/20 07:08:32;;;;;;;9.27;4.85;;;6.50;99.90;;;;;;6125783;23;20013;-84
2023/04/20 07:10:58;;;;;;;9.98;4.45;;;7.30;99.90;;;;;;6126127;23;20092;-84
2023/04/20 07:13:24;;;;;;;8.98;5.15;;;6.70;99.90;;;;;;6126234;23;20048;-84
2023/04/20 07:15:49;;;;;;;12.32;5.05;;;7.40;99.90;;;;;;6152748;23;20421;-84
2023/04/20 07:18:15;;;;;;;8.07;5.13;;;6.40;99.90;;;;;;6126383;23;20389;-84
2023/04/20 07:20:41;;;;;;;7.78;5.45;;;7.00;99.90;;;;;;6152350;23;20515;-84
2023/04/20 07:23:06;;;;;;;9.57;5.40;;;6.40;99.90;;;;;;6152350;23;20020;-84
2023/04/20 07:25:32;;;;;;;8.85;5.32;;;6.40;99.90;;;;;;6152718;23;20017;-84
2023/04/20 07:27:58;;;;;;;8.40;5.95;;;6.40;99.90;;;;;;6126251;23;20310;-84
2023/04/20 07:30:24;;;;;;;10.70;4.93;;;6.40;99.90;;;;;;6102023;23;20116;-84
2023/04/20 07:32:49;;;;;;;9.07;5.88;;;6.50;99.90;;;;;;6101776;23;20151;-84
2023/04/20 07:35:15;;;;;;;10.05;5.93;;;6.50;99.90;;;;;;6126328;23;20021;-85
2023/04/20 07:37:41;;;;;;;11.23;5.70;;;6.60;99.90;;;;;;6151781;23;20010;-85
2023/04/20 07:40:07;;;;;;;9.70;5.70;;;6.60;99.90;;;;;;6126072;23;20022;-84
2023/04/20 07:42:35;;;;;;;10.15;5.82;;;6.60;99.90;;;;;;6126202;23;20020;-84
2023/04/20 07:45:08;;;;;;;11.43;5.45;;;6.90;99.90;;;;;;6152693;23;20141;-84
2023/04/20 07:47:34;;;;;;;8.20;5.22;;;6.50;99.90;;;;;;6126551;23;20147;-84
2023/04/20 07:49:59;;;;;;;9.65;5.57;;;6.60;99.90;;;;;;6127354;23;20037;-84
2023/04/20 07:52:25;;;;;;;8.20;5.50;;;6.60;99.90;;;;;;6127514;23;20080;-84
2023/04/20 07:54:56;;;;;;;10.57;5.57;;;6.60;99.90;;;;;;6154250;23;20473;-84
2023/04/20 07:57:22;;;;;;;9.13;5.40;;;6.60;99.90;;;;;;6154836;23;20022;-84
2023/04/20 07:59:48;;;;;;;8.60;6.00;;;6.70;99.90;;;;;;6154544;23;20036;-84
2023/04/20 08:02:15;;;;;;;12.95;5.50;;;6.70;99.90;;;;;;6154603;23;20445;-83
2023/04/20 08:04:43;;;;;;;6.80;5.10;;;6.70;99.90;;;;;;6154666;23;20021;-84
2023/04/20 08:07:12;;;;;;;9.75;6.18;;;7.00;99.90;;;;;;6153988;23;20009;-84
2023/04/20 08:09:38;;;;;;;8.02;5.13;;;6.80;99.90;;;;;;6103558;23;20009;-84
2023/04/20 08:12:04;;;;;;;7.95;5.35;;;7.10;99.90;;;;;;6154441;23;20314;-84
2023/04/20 08:14:30;;;;;;;8.52;5.13;;;7.00;99.90;;;;;;6128010;23;20052;-84
2023/04/20 08:16:56;;;;;;;6.20;5.07;;;7.00;99.90;;;;;;6154471;23;20318;-84
2023/04/20 08:19:22;;;;;;;10.02;4.82;;;7.10;99.90;;;;;;6127051;23;20266;-84
2023/04/20 08:21:49;;;;;;;7.07;4.97;;;7.20;99.90;;;;;;6127237;23;20014;-84
2023/04/20 08:24:15;;;;;;;11.07;4.88;;;7.20;99.90;;;;;;6127795;23;20088;-84
2023/04/20 08:26:42;;;;;;;7.13;4.68;;;7.10;99.90;;;;;;6127743;23;20100;-84
2023/04/20 08:29:07;;;;;;;8.60;4.72;;;7.10;99.90;;;;;;6153874;23;20041;-84
2023/04/20 08:31:33;;;;;;;7.00;4.95;;;7.20;99.90;;;;;;6153991;23;20013;-84
2023/04/20 08:33:59;;;;;;;9.18;5.43;;;7.20;99.90;;;;;;6127745;23;20009;-84
2023/04/20 08:36:25;;;;;;;9.32;5.35;;;7.40;99.90;;;;;;6127161;23;20068;-84
2023/04/20 08:38:56;;;;;;;12.13;5.03;;;7.50;99.90;;;;;;6127383;23;20159;-84
2023/04/20 08:41:23;;;;;;;9.30;5.13;;;7.50;99.90;;;;;;6154092;23;20137;-84
2023/04/20 08:43:49;;;;;;;11.95;5.88;;;7.50;99.90;;;;;;6127912;23;20061;-84
2023/04/20 08:46:16;;;;;;;8.70;5.40;;;7.40;99.90;;;;;;6154212;23;20006;-84
2023/04/20 08:48:45;;;;;;;11.38;5.50;;;7.40;99.90;;;;;;6127571;23;20009;-85
2023/04/20 08:51:11;;;;;;;9.57;6.30;;;7.30;99.90;;;;;;6126959;23;20017;-84
2023/04/20 08:53:36;;;;;;;11.77;5.75;;;7.40;99.90;;;;;;6103244;23;20040;-84
2023/04/20 08:56:03;;;;;;;9.18;5.65;;;7.40;99.90;;;;;;6122478;23;20093;-85
2023/04/20 08:58:31;;;;;;;11.80;6.30;;;7.40;99.90;;;;;;6122352;23;20026;-84
2023/04/20 09:00:59;;;;;;;9.10;6.38;;;7.70;99.90;;;;;;6122089;23;20538;-85
2023/04/20 09:03:51;;;;;;;12.45;5.82;;;7.60;99.90;;;;;;6122406;23;20050;-85
2023/04/20 09:06:17;;;;;;;14.52;6.07;;;7.90;99.90;;;;;;6117931;23;20025;-83
2023/04/20 09:08:45;;;;;;;9.20;5.97;;;8.00;99.90;;;;;;6122683;23;20025;-82
2023/04/20 09:11:28;;;;;;;10.25;5.57;;;8.40;99.90;;;;;;6122817;23;20014;-82
2023/04/20 09:14:05;;;;;;;10.15;5.30;;;8.20;99.90;;;;;;6122362;23;20342;-81
2023/04/20 09:16:34;;;;;;;8.65;5.60;;;8.30;99.90;;;;;;6124349;23;20077;-82
2023/04/20 09:19:00;;;;;;;9.10;6.00;;;8.40;99.90;;;;;;6121787;23;20333;-82
2023/04/20 09:21:30;;;;;;;9.13;5.30;;;8.60;99.90;;;;;;6122249;23;20018;-82
2023/04/20 09:24:01;;;;;;;9.35;5.60;;;8.80;99.90;;;;;;6097844;23;20453;-82
2023/04/20 09:26:31;;;;;;;10.88;6.65;;;8.70;99.90;;;;;;6097841;23;20014;-82
2023/04/20 09:28:56;;;;;;;10.43;6.50;;;8.70;99.90;;;;;;6122139;23;20018;-82
2023/04/20 09:31:22;;;;;;;23.33;21.05;;;8.70;99.90;;;;;;6123996;23;20037;-82
2023/04/20 09:33:58;;;;;;;11.98;9.38;;;8.60;99.90;;;;;;6121810;23;20060;-81
2023/04/20 09:36:33;;;;;;;17.60;14.55;;;8.80;99.90;;;;;;6121992;23;20016;-81
2023/04/20 09:39:04;;;;;;;8.13;5.85;;;8.50;99.90;;;;;;6124137;23;20013;-82
2023/04/20 09:41:30;;;;;;;11.20;7.72;;;8.50;99.90;;;;;;6121839;23;20021;-82
2023/04/20 09:43:57;;;;;;;10.63;5.93;;;8.40;99.90;;;;;;6121899;23;20165;-82
2023/04/20 09:46:24;;;;;;;8.48;5.95;;;8.30;99.90;;;;;;6123976;23;20010;-82
2023/04/20 09:48:50;;;;;;;10.57;6.35;;;8.30;99.90;;;;;;6123349;23;20021;-82
2023/04/20 09:51:16;;;;;;;10.98;6.82;;;8.80;99.90;;;;;;6121865;23;20010;-81
2023/04/20 09:53:44;;;;;;;9.82;6.00;;;8.30;99.90;;;;;;6123902;23;20025;-81
2023/04/20 09:56:11;;;;;;;12.23;6.13;;;8.20;99.90;;;;;;6121709;23;20302;-82
2023/04/20 09:58:37;;;;;;;14.65;6.18;;;8.20;99.90;;;;;;6097271;23;20093;-82
2023/04/20 10:01:03;;;;;;;12.98;7.47;;;8.30;99.90;;;;;;6121964;23;20095;-81
2023/04/20 10:03:28;;;;;;;9.60;6.35;;;8.30;99.90;;;;;;6123301;23;20453;-82
2023/04/20 10:05:54;;;;;;;9.43;6.55;;;8.40;99.90;;;;;;6123554;23;20016;-82
2023/04/20 10:08:20;;;;;;;12.45;6.93;;;8.50;99.90;;;;;;6121852;23;20014;-82
2023/04/20 10:10:49;;;;;;;8.52;6.28;;;8.30;99.90;;;;;;6121872;23;20384;-82
2023/04/20 10:13:18;;;;;;;34.78;9.73;;;8.20;99.90;;;;;;6121359;23;20386;-82
2023/04/20 10:15:43;;;;;;;26.20;11.05;;;8.10;99.90;;;;;;6123839;23;20097;-81
2023/04/20 10:18:18;;;;;;;11.45;6.68;;;8.20;99.90;;;;;;6123218;23;20428;-82
2023/04/20 10:20:45;;;;;;;13.50;8.68;;;8.20;99.90;;;;;;6121749;23;20397;-82
2023/04/20 10:23:13;;;;;;;10.48;6.70;;;9.00;99.90;;;;;;6097130;23;20062;-81
2023/04/20 10:25:40;;;;;;;10.55;6.90;;;9.00;99.90;;;;;;6121669;23;20018;-81
2023/04/20 10:28:08;;;;;;;13.27;8.45;;;8.40;99.90;;;;;;6123306;23;20021;-81
2023/04/20 10:30:35;;;;;;;13.88;7.20;;;8.50;99.90;;;;;;6097308;23;20014;-82
2023/04/20 10:33:11;;;;;;;10.32;6.50;;;8.50;99.90;;;;;;6121116;23;20097;-84
2023/04/20 10:35:49;;;;;;;11.40;7.15;;;8.50;99.90;;;;;;6122842;23;20393;-84
2023/04/20 10:38:27;;;;;;;11.02;6.22;;;8.60;99.90;;;;;;6123472;23;20018;-84
2023/04/20 10:40:52;;;;;;;9.88;6.72;;;8.80;99.90;;;;;;6124877;23;20010;-84
2023/04/20 10:43:20;;;;;;;10.00;7.00;;;8.50;99.90;;;;;;6098414;23;20072;-83
2023/04/20 10:45:46;;;;;;;13.30;6.75;;;8.60;99.90;;;;;;6122106;23;20172;-81
2023/04/20 10:48:12;;;;;;;10.20;6.30;;;8.60;99.90;;;;;;6123084;23;20061;-80
2023/04/20 10:50:38;;;;;;;8.60;6.57;;;8.70;99.90;;;;;;6122533;23;20009;-80
2023/04/20 10:53:04;;;;;;;9.43;6.50;;;8.80;99.90;;;;;;6122277;23;20093;-81
2023/04/20 10:55:30;;;;;;;9.68;7.70;;;8.90;99.90;;;;;;6097877;23;20022;-81
2023/04/20 10:57:56;;;;;;;11.05;6.80;;;8.90;99.90;;;;;;6122499;23;20006;-83
2023/04/20 11:00:25;;;;;;;9.65;6.55;;;9.40;99.90;;;;;;6121998;23;20010;-81
2023/04/20 11:02:55;;;;;;;10.38;6.47;;;8.90;99.90;;;;;;6122344;23;20018;-81
2023/04/20 11:05:23;;;;;;;9.25;7.47;;;8.90;99.90;;;;;;6122570;23;20017;-81
2023/04/20 11:07:54;;;;;;;8.82;6.53;;;8.80;99.90;;;;;;6121982;23;20012;-80
2023/04/20 11:10:22;;;;;;;9.50;6.70;;;8.80;99.90;;;;;;6098207;23;20068;-81
2023/04/20 11:12:48;;;;;;;12.05;7.72;;;8.80;99.90;;;;;;6123708;23;20014;-81
2023/04/20 11:15:15;;;;;;;12.60;7.22;;;8.80;99.90;;;;;;6123361;23;20388;-82
2023/04/20 11:17:40;;;;;;;11.65;8.05;;;8.70;99.90;;;;;;6123523;23;20022;-80
2023/04/20 11:20:16;;;;;;;10.85;7.75;;;9.10;99.90;;;;;;6123808;23;20133;-81
2023/04/20 11:22:42;;;;;;;11.40;7.80;;;8.70;99.90;;;;;;6121862;23;20484;-80
2023/04/20 11:25:09;;;;;;;14.77;7.78;;;8.80;99.90;;;;;;6122106;23;20050;-80
2023/04/20 11:27:37;;;;;;;13.25;8.90;;;8.80;99.90;;;;;;6121989;23;20445;-82
2023/04/20 11:30:04;;;;;;;14.02;10.77;;;8.70;99.90;;;;;;6121489;23;20085;-81
2023/04/20 11:32:34;;;;;;;14.20;10.23;;;8.70;99.90;;;;;;6122066;23;20065;-83
2023/04/20 11:35:07;;;;;;;15.43;11.00;;;8.60;99.90;;;;;;6122140;23;20018;-81
2023/04/20 11:37:56;;;;;;;13.52;10.30;;;8.60;99.90;;;;;;6122340;23;20016;-81
2023/04/20 11:40:22;;;;;;;11.70;10.00;;;8.50;99.90;;;;;;6122097;23;20445;-80
2023/04/20 11:42:47;;;;;;;12.10;9.60;;;8.50;99.90;;;;;;6097437;23;20014;-81
2023/04/20 11:45:13;;;;;;;15.60;10.50;;;8.50;99.90;;;;;;6097081;23;20126;-81
2023/04/20 11:47:41;;;;;;;15.23;10.85;;;8.50;99.90;;;;;;6123774;23;20005;-80
2023/04/20 11:50:09;;;;;;;13.63;10.77;;;8.60;99.90;;;;;;6123970;23;20081;-80
2023/04/20 11:52:34;;;;;;;15.65;11.27;;;8.70;99.90;;;;;;6097654;23;20014;-80
2023/04/20 11:55:00;;;;;;;14.70;11.60;;;8.70;99.90;;;;;;6097359;23;20093;-81
2023/04/20 11:57:26;;;;;;;16.17;12.05;;;8.80;99.90;;;;;;6122133;23;20017;-81
2023/04/20 11:59:51;;;;;;;14.55;12.10;;;9.30;99.90;;;;;;6123269;23;20014;-81
2023/04/20 12:02:17;;;;;;;15.48;11.75;;;9.10;99.90;;;;;;6123272;23;20434;-81
2023/04/20 12:04:43;;;;;;;18.52;12.85;;;9.40;99.90;;;;;;6124095;23;20014;-81
2023/04/20 12:07:09;;;;;;;16.90;11.98;;;9.20;99.90;;;;;;6121734;23;20021;-81
2023/04/20 12:09:36;;;;;;;15.75;11.80;;;9.80;99.90;;;;;;6121997;23;20021;-80
2023/04/20 12:12:03;;;;;;;15.73;11.40;;;9.70;99.90;;;;;;6121917;23;20022;-81
2023/04/20 12:14:31;;;;;;;12.60;10.68;;;10.00;99.90;;;;;;6121625;23;20017;-82
2023/04/20 12:16:57;;;;;;;14.40;10.90;;;10.40;99.90;;;;;;6121812;23;20014;-81
2023/04/20 12:19:23;;;;;;;18.20;10.90;;;10.50;99.90;;;;;;6123689;23;20014;-80
2023/04/20 12:21:48;;;;;;;12.02;9.57;;;10.70;99.90;;;;;;6121703;23;20331;-81
2023/04/20 12:24:14;;;;;;;12.45;10.32;;;10.80;99.90;;;;;;6121758;23;20524;-81
2023/04/20 12:26:40;;;;;;;14.07;9.85;;;11.10;99.90;;;;;;6124040;23;20038;-82
2023/04/20 12:29:06;;;;;;;10.82;8.85;;;11.10;99.90;;;;;;6097344;23;20033;-81
2023/04/20 12:31:32;;;;;;;13.95;9.77;;;11.10;99.90;;;;;;6121689;23;20441;-80
2023/04/20 12:33:57;;;;;;;12.68;10.00;;;11.10;99.90;;;;;;6123663;23;20021;-81
2023/04/20 12:36:23;;;;;;;12.30;9.70;;;11.30;99.90;;;;;;6124858;23;20014;-81
2023/04/20 12:38:52;;;;;;;13.50;9.50;;;11.50;99.90;;;;;;6124003;23;20094;-81
2023/04/20 12:41:18;;;;;;;13.70;10.25;;;11.50;99.90;;;;;;6098997;23;20050;-80
2023/04/20 12:43:44;;;;;;;14.27;9.68;;;11.70;99.90;;;;;;6124783;23;20182;-81
2023/04/20 12:46:10;;;;;;;12.38;8.95;;;11.60;99.90;;;;;;6098972;23;20050;-81
2023/04/20 12:48:35;;;;;;;10.23;8.48;;;11.80;99.90;;;;;;6123196;23;20061;-82